Time;durP1;ratioP1;P1;durP2;ratioP2;P2;SDS_P1;SDS_P2;PMS_P1;PMS_P2;Temp;Humidity;BMP_temperature;BMP_pressure;BME280_temperature;BME280_humidity;BME280_pressure;Samples;Min_cycle;Max_cycle;Signal;HPM_P1;HPM_P2
2021/12/18 00:02:01;;;;;;;0.70;0.70;;;3.90;99.90;;;;;;5261787;28;20180;-77
2021/12/18 00:04:32;;;;;;;0.52;0.52;;;3.80;99.90;;;;;;5253268;28;20048;-76
2021/12/18 00:07:06;;;;;;;0.80;0.80;;;3.90;99.90;;;;;;5247426;28;20622;-77
2021/12/18 00:09:48;;;;;;;1.10;1.10;;;3.90;99.90;;;;;;5244445;28;20081;-76
2021/12/18 00:12:25;;;;;;;0.85;0.85;;;3.90;99.90;;;;;;5262505;28;20111;-76
2021/12/18 00:14:58;;;;;;;0.50;0.50;;;3.90;99.90;;;;;;5261411;28;20428;-76
2021/12/18 00:17:29;;;;;;;0.80;0.80;;;3.80;99.90;;;;;;5260030;28;20226;-77
2021/12/18 00:20:07;;;;;;;1.17;1.17;;;3.80;99.90;;;;;;5261363;28;20099;-77
2021/12/18 00:22:41;;;;;;;0.80;0.80;;;3.90;99.90;;;;;;5261163;28;20043;-78
2021/12/18 00:25:17;;;;;;;0.80;0.80;;;3.90;99.90;;;;;;5256309;28;20443;-77
2021/12/18 00:27:56;;;;;;;0.95;0.95;;;3.90;99.90;;;;;;5248756;28;20103;-76
2021/12/18 00:30:27;;;;;;;0.60;0.60;;;3.90;99.90;;;;;;5261133;28;20482;-77
2021/12/18 00:33:02;;;;;;;0.80;0.80;;;3.90;99.90;;;;;;5261206;28;20031;-77
2021/12/18 00:35:39;;;;;;;0.50;0.50;;;3.90;99.90;;;;;;5247707;28;20036;-78
2021/12/18 00:38:10;;;;;;;1.52;1.52;;;3.90;99.90;;;;;;5230326;28;20345;-77
2021/12/18 00:41:10;;;;;;;0.60;0.60;;;3.90;99.90;;;;;;5263753;28;20020;-77
2021/12/18 00:46:37;;;;;;;0.60;0.60;;;3.80;99.90;;;;;;5265070;28;20024;-77
2021/12/18 00:49:19;;;;;;;0.70;0.70;;;3.90;99.90;;;;;;5246418;28;20146;-77
2021/12/18 00:51:52;;;;;;;0.63;0.63;;;4.00;99.90;;;;;;5263907;28;20036;-76
2021/12/18 00:54:28;;;;;;;1.02;1.02;;;3.90;99.90;;;;;;5247762;28;20289;-77
2021/12/18 00:57:07;;;;;;;0.98;0.98;;;3.80;99.90;;;;;;5263241;28;20056;-76
2021/12/18 00:59:38;;;;;;;0.77;0.77;;;3.90;99.90;;;;;;5263454;28;20027;-77
2021/12/18 01:02:09;;;;;;;0.45;0.45;;;3.90;99.90;;;;;;5264137;28;20464;-77
2021/12/18 01:04:42;;;;;;;0.52;0.52;;;3.80;99.90;;;;;;5257223;28;20048;-76
2021/12/18 01:07:14;;;;;;;1.13;1.13;;;3.90;99.90;;;;;;5246452;28;20024;-77
2021/12/18 01:12:41;;;;;;;0.50;0.50;;;3.90;99.90;;;;;;5241850;28;20063;-77
2021/12/18 01:15:34;;;;;;;1.00;1.00;;;3.90;99.90;;;;;;5260018;28;20020;-77
2021/12/18 01:23:48;;;;;;;0.73;0.73;;;4.00;99.90;;;;;;5258679;28;20029;-76
2021/12/18 01:26:23;;;;;;;4.47;2.55;;;4.00;99.90;;;;;;5258077;28;20020;-76
2021/12/18 01:28:53;;;;;;;0.85;0.85;;;4.10;99.90;;;;;;5262922;28;20032;-76
2021/12/18 01:31:28;;;;;;;1.05;1.05;;;4.10;99.90;;;;;;5261793;28;20044;-77
2021/12/18 01:34:03;;;;;;;3.00;2.60;;;4.10;99.90;;;;;;5263991;28;20039;-76
2021/12/18 01:36:35;;;;;;;0.60;0.60;;;4.10;99.90;;;;;;5264550;28;20269;-77
2021/12/18 01:39:08;;;;;;;0.98;0.98;;;4.10;99.90;;;;;;5265585;28;20065;-76
2021/12/18 01:53:22;;;;;;;1.17;1.17;;;4.10;99.90;;;;;;5264182;28;20027;-77
2021/12/18 01:56:01;;;;;;;0.80;0.80;;;4.10;99.90;;;;;;5254056;28;20032;-79
2021/12/18 01:58:32;;;;;;;0.60;0.60;;;4.10;99.90;;;;;;5250790;28;20732;-79
2021/12/18 02:01:05;;;;;;;0.50;0.50;;;4.10;99.90;;;;;;5245787;28;20032;-78
2021/12/18 02:03:38;;;;;;;1.55;1.45;;;4.20;99.90;;;;;;5265780;28;20124;-78
2021/12/18 02:06:09;;;;;;;0.63;0.63;;;4.20;99.90;;;;;;5258860;28;20772;-78
2021/12/18 02:08:44;;;;;;;0.73;0.73;;;4.20;99.90;;;;;;5263907;28;20058;-78
2021/12/18 02:14:21;;;;;;;0.70;0.70;;;4.20;99.90;;;;;;5263207;28;20023;-79
2021/12/18 02:20:10;;;;;;;1.23;1.23;;;4.30;99.90;;;;;;5265231;28;20030;-78
2021/12/18 02:22:43;;;;;;;0.70;0.70;;;4.30;99.90;;;;;;5264373;28;20036;-78
2021/12/18 02:25:16;;;;;;;0.70;0.70;;;4.30;99.90;;;;;;5262963;28;20040;-76
2021/12/18 02:27:48;;;;;;;0.45;0.45;;;4.20;99.90;;;;;;5261778;28;20020;-76
2021/12/18 02:30:25;;;;;;;0.77;0.77;;;4.20;99.90;;;;;;5262638;28;20047;-77
2021/12/18 02:33:02;;;;;;;1.38;1.38;;;4.20;99.90;;;;;;5264496;28;20051;-77
2021/12/18 02:35:47;;;;;;;0.45;0.45;;;4.20;99.90;;;;;;5248526;28;20328;-77
2021/12/18 02:41:39;;;;;;;0.80;0.80;;;4.20;99.90;;;;;;5263904;28;20032;-76
2021/12/18 02:44:12;;;;;;;0.57;0.57;;;4.10;99.90;;;;;;5263951;28;20020;-78
2021/12/18 02:46:45;;;;;;;0.40;0.40;;;4.20;99.90;;;;;;5262442;28;20369;-78
2021/12/18 02:49:19;;;;;;;0.95;0.95;;;4.10;99.90;;;;;;5264148;28;20035;-77
2021/12/18 02:51:52;;;;;;;0.82;0.82;;;4.10;99.90;;;;;;5245274;28;20154;-78
2021/12/18 02:54:24;;;;;;;0.75;0.75;;;4.10;99.90;;;;;;5229590;28;20044;-77
2021/12/18 02:57:00;;;;;;;1.35;1.35;;;4.10;99.90;;;;;;5241801;28;20336;-76
2021/12/18 02:59:44;;;;;;;0.77;0.77;;;4.00;99.90;;;;;;5264441;28;20039;-77
2021/12/18 03:02:24;;;;;;;1.15;1.15;;;4.00;99.90;;;;;;5263537;28;20075;-76
2021/12/18 03:05:00;;;;;;;0.80;0.80;;;4.00;99.90;;;;;;5260117;28;20104;-77
2021/12/18 03:07:33;;;;;;;0.80;0.80;;;4.00;99.90;;;;;;5272930;28;20066;-77
2021/12/18 03:24:35;;;;;;;0.70;0.70;;;3.90;99.90;;;;;;5233679;28;20063;-76
2021/12/18 03:27:09;;;;;;;0.60;0.60;;;3.90;99.90;;;;;;5262089;28;20024;-76
2021/12/18 03:29:39;;;;;;;0.90;0.90;;;3.90;99.90;;;;;;5262768;28;20027;-78
2021/12/18 03:32:16;;;;;;;0.88;0.88;;;3.90;99.90;;;;;;5245964;28;20465;-77
2021/12/18 03:34:50;;;;;;;1.05;1.05;;;4.00;99.90;;;;;;5245794;28;20478;-77
2021/12/18 03:37:24;;;;;;;0.88;0.88;;;3.90;99.90;;;;;;5262676;28;20044;-78
2021/12/18 03:39:57;;;;;;;;;;;3.90;99.90;;;;;;5262464;28;20028;-76
2021/12/18 03:42:31;;;;;;;0.60;0.60;;;3.90;99.90;;;;;;5245578;28;19920;-77
2021/12/18 03:45:08;;;;;;;0.65;0.65;;;3.80;99.90;;;;;;5262051;28;20032;-76
2021/12/18 03:47:42;;;;;;;0.80;0.80;;;3.80;99.90;;;;;;5260945;28;20051;-76
2021/12/18 03:50:16;;;;;;;1.77;1.67;;;3.80;99.90;;;;;;5245272;28;20023;-76
2021/12/18 03:52:55;;;;;;;1.33;1.33;;;3.80;99.90;;;;;;5260901;28;20062;-77
2021/12/18 03:55:29;;;;;;;0.95;0.95;;;3.80;99.90;;;;;;5251770;28;20067;-76
2021/12/18 03:58:03;;;;;;;1.67;1.58;;;3.80;99.90;;;;;;5263089;28;20076;-77
2021/12/18 04:00:39;;;;;;;0.93;0.93;;;3.80;99.90;;;;;;5262425;28;20103;-76
2021/12/18 04:03:11;;;;;;;0.80;0.80;;;3.80;99.90;;;;;;5262720;28;20105;-77
2021/12/18 04:05:42;;;;;;;1.73;1.63;;;3.80;99.90;;;;;;5258357;28;20103;-76
2021/12/18 04:08:15;;;;;;;0.52;0.52;;;3.90;99.90;;;;;;5271595;28;20028;-77
2021/12/18 04:10:46;;;;;;;0.73;0.73;;;3.90;99.90;;;;;;5266266;28;20065;-76
2021/12/18 04:13:29;;;;;;;1.02;1.02;;;3.90;99.90;;;;;;5268075;28;20024;-77
2021/12/18 04:16:00;;;;;;;0.85;0.85;;;3.90;99.90;;;;;;5268550;28;20039;-77
2021/12/18 04:18:36;;;;;;;0.63;0.63;;;3.90;99.90;;;;;;5267826;28;20034;-76
2021/12/18 04:21:08;;;;;;;1.15;1.15;;;3.90;99.90;;;;;;5269015;28;20035;-77
2021/12/18 04:23:45;;;;;;;0.63;0.63;;;3.90;99.90;;;;;;5246493;28;20072;-77
2021/12/18 04:26:16;;;;;;;1.00;1.00;;;3.90;99.90;;;;;;5267128;28;20032;-77
2021/12/18 04:28:53;;;;;;;0.60;0.60;;;3.90;99.90;;;;;;5266179;28;20051;-79
2021/12/18 04:31:25;;;;;;;0.73;0.73;;;3.90;99.90;;;;;;5265901;28;20055;-77
2021/12/18 04:33:56;;;;;;;0.60;0.60;;;4.00;99.90;;;;;;5248832;28;20031;-77
2021/12/18 04:36:28;;;;;;;0.65;0.65;;;3.90;99.90;;;;;;5248637;28;20495;-77
2021/12/18 04:39:00;;;;;;;0.60;0.60;;;3.90;99.90;;;;;;5267859;28;20039;-77
2021/12/18 04:41:41;;;;;;;2.15;2.05;;;3.90;99.90;;;;;;5268013;28;20035;-77
2021/12/18 04:44:11;;;;;;;0.60;0.60;;;3.90;99.90;;;;;;5267232;28;20036;-78
2021/12/18 04:46:45;;;;;;;1.60;1.50;;;3.90;99.90;;;;;;5250952;28;20066;-77
2021/12/18 04:49:21;;;;;;;1.55;1.45;;;3.90;99.90;;;;;;5269202;28;20027;-77
2021/12/18 04:51:52;;;;;;;1.63;1.52;;;3.90;99.90;;;;;;5265719;28;20048;-78
2021/12/18 04:54:23;;;;;;;0.85;0.85;;;3.90;99.90;;;;;;5267791;28;20046;-77
2021/12/18 04:56:54;;;;;;;0.40;0.40;;;3.90;99.90;;;;;;5248427;28;20048;-78
2021/12/18 04:59:27;;;;;;;1.20;1.20;;;3.80;99.90;;;;;;5247384;28;20036;-76
2021/12/18 05:01:58;;;;;;;0.82;0.82;;;3.90;99.90;;;;;;5264038;28;20023;-76
2021/12/18 05:04:29;;;;;;;1.80;1.27;;;3.80;99.90;;;;;;5239457;28;20097;-77
2021/12/18 05:06:59;;;;;;;0.70;0.70;;;3.90;99.90;;;;;;5279820;28;20027;-76
2021/12/18 05:09:33;;;;;;;0.85;0.85;;;3.90;99.90;;;;;;5237698;28;20027;-78
2021/12/18 05:12:09;;;;;;;0.95;0.95;;;3.90;99.90;;;;;;5265318;28;20031;-79
2021/12/18 05:14:40;;;;;;;1.35;1.30;;;3.90;99.90;;;;;;5265581;28;20452;-78
2021/12/18 05:17:14;;;;;;;0.70;0.70;;;3.90;99.90;;;;;;5264831;28;20036;-78
2021/12/18 05:19:45;;;;;;;2.13;2.03;;;3.90;99.90;;;;;;5263956;28;20024;-78
2021/12/18 05:22:16;;;;;;;1.38;1.38;;;3.90;99.90;;;;;;5262766;28;20078;-78
2021/12/18 05:24:47;;;;;;;0.70;0.70;;;3.90;99.90;;;;;;5263906;28;20033;-78
2021/12/18 05:27:20;;;;;;;0.95;0.95;;;3.90;99.90;;;;;;5238672;28;20210;-79
2021/12/18 05:29:51;;;;;;;1.08;1.08;;;3.90;99.90;;;;;;5265835;28;20481;-80
2021/12/18 05:32:23;;;;;;;0.60;0.60;;;3.90;99.90;;;;;;5264725;28;20035;-78
2021/12/18 05:34:54;;;;;;;0.93;0.93;;;3.90;99.90;;;;;;5265124;28;20031;-79
2021/12/18 05:37:52;;;;;;;1.38;1.35;;;4.00;99.90;;;;;;5265447;28;20107;-78
2021/12/18 05:40:27;;;;;;;0.80;0.80;;;3.90;99.90;;;;;;5265809;28;20039;-78
2021/12/18 05:43:04;;;;;;;0.55;0.55;;;4.00;99.90;;;;;;5266035;28;20032;-77
2021/12/18 05:45:38;;;;;;;1.08;1.08;;;4.00;99.90;;;;;;5266231;28;20024;-76
2021/12/18 05:48:09;;;;;;;0.93;0.93;;;4.00;99.90;;;;;;5264584;28;20462;-78
2021/12/18 05:50:45;;;;;;;0.60;0.60;;;4.00;99.90;;;;;;5234316;28;20032;-77
2021/12/18 05:53:21;;;;;;;2.38;2.28;;;4.00;99.90;;;;;;5265416;28;20032;-77
2021/12/18 05:55:55;;;;;;;0.70;0.70;;;4.00;99.90;;;;;;5260287;28;20610;-76
2021/12/18 05:58:26;;;;;;;1.02;1.02;;;4.00;99.90;;;;;;5243701;28;20028;-77
2021/12/18 06:01:02;;;;;;;0.75;0.75;;;4.10;99.90;;;;;;5225816;28;20024;-76
2021/12/18 06:03:36;;;;;;;1.10;1.10;;;4.00;99.90;;;;;;5245209;28;20031;-76
2021/12/18 06:06:08;;;;;;;1.48;1.45;;;4.00;99.90;;;;;;5241469;28;20054;-77
2021/12/18 06:08:42;;;;;;;0.80;0.80;;;4.00;99.90;;;;;;5253496;28;20048;-77
2021/12/18 06:11:21;;;;;;;0.75;0.75;;;3.90;99.90;;;;;;5244301;28;20078;-76
2021/12/18 06:13:54;;;;;;;1.70;1.60;;;3.90;99.90;;;;;;5242702;28;20032;-77
2021/12/18 06:16:33;;;;;;;0.60;0.60;;;3.90;99.90;;;;;;5243106;28;20020;-77
2021/12/18 06:19:06;;;;;;;0.82;0.82;;;3.90;99.90;;;;;;5261402;28;20368;-77
2021/12/18 06:21:37;;;;;;;1.10;1.10;;;3.90;99.90;;;;;;5263984;28;20095;-76
2021/12/18 06:24:08;;;;;;;0.70;0.70;;;3.90;99.90;;;;;;5241911;28;20343;-78
2021/12/18 06:26:45;;;;;;;0.65;0.65;;;3.90;99.90;;;;;;5243393;28;20120;-76
2021/12/18 06:29:19;;;;;;;0.70;0.70;;;3.90;99.90;;;;;;5264330;28;20027;-76
2021/12/18 06:31:56;;;;;;;0.90;0.90;;;3.90;99.90;;;;;;5264488;28;20048;-76
2021/12/18 06:34:27;;;;;;;0.60;0.60;;;3.90;99.90;;;;;;5246729;28;20028;-77
2021/12/18 06:37:04;;;;;;;0.55;0.55;;;3.80;99.90;;;;;;5262916;28;20035;-77
2021/12/18 06:39:35;;;;;;;0.70;0.70;;;3.80;99.90;;;;;;5263572;28;20081;-76
2021/12/18 06:42:09;;;;;;;0.63;0.63;;;3.80;99.90;;;;;;5263005;28;20032;-77
2021/12/18 06:44:45;;;;;;;0.90;0.90;;;3.80;99.90;;;;;;5262199;28;20095;-78
2021/12/18 06:47:18;;;;;;;0.60;0.60;;;3.80;99.90;;;;;;5262211;28;20032;-78
2021/12/18 06:49:52;;;;;;;0.63;0.63;;;3.80;99.90;;;;;;5238115;28;20032;-78
2021/12/18 06:52:26;;;;;;;0.50;0.50;;;3.80;99.90;;;;;;5245284;28;20074;-77
2021/12/18 06:54:56;;;;;;;0.50;0.50;;;3.90;99.90;;;;;;5259287;28;20377;-78
2021/12/18 06:57:28;;;;;;;0.90;0.90;;;3.90;99.90;;;;;;5241492;28;20060;-78
2021/12/18 07:00:03;;;;;;;1.00;1.00;;;3.90;99.90;;;;;;5241873;28;20064;-77
2021/12/18 07:02:37;;;;;;;0.55;0.55;;;3.90;99.90;;;;;;5224007;28;20116;-78
2021/12/18 07:05:10;;;;;;;3.17;2.88;;;3.90;99.90;;;;;;5251347;28;20074;-78
2021/12/18 07:07:44;;;;;;;0.50;0.50;;;3.90;99.90;;;;;;5261734;28;20032;-78
2021/12/18 07:10:14;;;;;;;0.40;0.40;;;3.80;99.90;;;;;;5259469;28;20094;-79
2021/12/18 07:12:51;;;;;;;0.50;0.50;;;3.80;99.90;;;;;;5258286;28;20491;-78
2021/12/18 07:15:24;;;;;;;0.70;0.70;;;3.80;99.90;;;;;;5259028;28;20229;-78
2021/12/18 07:17:58;;;;;;;0.95;0.95;;;3.80;99.90;;;;;;5261694;28;20024;-78
2021/12/18 07:20:29;;;;;;;0.88;0.82;;;3.80;99.90;;;;;;5262796;28;20024;-78
2021/12/18 07:23:00;;;;;;;0.43;0.43;;;3.80;99.90;;;;;;5262487;28;20020;-78
2021/12/18 07:25:31;;;;;;;0.70;0.70;;;3.70;99.90;;;;;;5244925;28;20099;-79
2021/12/18 07:28:05;;;;;;;0.70;0.70;;;3.70;99.90;;;;;;5248692;28;20334;-77
2021/12/18 07:30:36;;;;;;;1.55;1.55;;;3.70;99.90;;;;;;5240167;28;20036;-78
2021/12/18 07:33:10;;;;;;;0.63;0.63;;;3.90;99.90;;;;;;5241049;28;20434;-78
2021/12/18 07:35:44;;;;;;;0.52;0.52;;;3.90;99.90;;;;;;5244513;28;20028;-78
2021/12/18 07:38:18;;;;;;;0.90;0.90;;;3.90;99.90;;;;;;5244587;28;20096;-78
2021/12/18 07:40:54;;;;;;;0.77;0.77;;;3.90;99.90;;;;;;5245818;28;20565;-77
2021/12/18 07:43:27;;;;;;;0.95;0.95;;;3.90;99.90;;;;;;5241937;28;20067;-78
2021/12/18 07:46:03;;;;;;;3.10;2.58;;;3.90;99.90;;;;;;5257530;28;20035;-77
2021/12/18 07:48:36;;;;;;;1.00;1.00;;;3.90;99.90;;;;;;5239305;28;20073;-77
2021/12/18 07:51:09;;;;;;;1.83;1.73;;;3.80;99.90;;;;;;5248432;28;20020;-77
2021/12/18 07:53:45;;;;;;;0.70;0.70;;;3.90;99.90;;;;;;5280214;28;20096;-76
2021/12/18 07:56:20;;;;;;;0.50;0.50;;;3.90;99.90;;;;;;5261864;28;20341;-77
2021/12/18 07:58:51;;;;;;;;;;;4.00;99.90;;;;;;5262223;28;20032;-77
2021/12/18 08:01:30;;;;;;;1.58;1.58;;;4.00;99.90;;;;;;5277319;28;19915;-77
2021/12/18 08:04:06;;;;;;;1.17;1.17;;;4.00;99.90;;;;;;5260753;28;20033;-77
2021/12/18 08:06:37;;;;;;;1.40;1.40;;;4.10;99.90;;;;;;5266988;28;20060;-76
2021/12/18 08:09:08;;;;;;;0.90;0.90;;;4.20;99.90;;;;;;5262490;28;20054;-76
2021/12/18 08:11:44;;;;;;;0.40;0.40;;;4.20;99.90;;;;;;5247391;28;20032;-75
2021/12/18 08:14:15;;;;;;;1.00;1.00;;;4.20;99.90;;;;;;5263043;28;20016;-76
2021/12/18 08:16:56;;;;;;;1.45;1.35;;;4.20;99.90;;;;;;5229805;28;20028;-76
2021/12/18 08:19:32;;;;;;;0.85;0.85;;;4.30;99.90;;;;;;5263277;28;20577;-76
2021/12/18 08:22:03;;;;;;;0.70;0.70;;;4.30;99.90;;;;;;5258159;28;20375;-77
2021/12/18 08:24:34;;;;;;;0.80;0.80;;;4.40;99.90;;;;;;5239833;28;20044;-77
2021/12/18 08:27:06;;;;;;;2.08;1.95;;;4.40;99.90;;;;;;5239563;28;20042;-77
2021/12/18 08:29:44;;;;;;;1.10;1.10;;;4.30;99.90;;;;;;5239670;28;20025;-77
2021/12/18 08:32:15;;;;;;;0.85;0.85;;;4.30;99.90;;;;;;5252889;28;20462;-78
2021/12/18 08:34:49;;;;;;;1.10;1.10;;;4.30;99.90;;;;;;5263134;28;20031;-76
2021/12/18 08:37:20;;;;;;;0.98;0.98;;;4.30;99.90;;;;;;5261916;28;20028;-76
2021/12/18 08:39:51;;;;;;;1.17;1.17;;;4.30;99.90;;;;;;5242688;28;20036;-76
2021/12/18 08:42:24;;;;;;;1.50;1.50;;;4.30;99.90;;;;;;5240530;28;20040;-76
2021/12/18 08:44:57;;;;;;;0.77;0.77;;;4.40;99.90;;;;;;5260178;28;20024;-77
2021/12/18 08:47:34;;;;;;;1.63;1.52;;;4.40;99.90;;;;;;5261473;28;20333;-76
2021/12/18 08:50:09;;;;;;;0.75;0.75;;;4.40;99.90;;;;;;5233904;28;20021;-76
2021/12/18 08:52:42;;;;;;;0.80;0.80;;;4.40;99.90;;;;;;5241140;28;20064;-77
2021/12/18 08:55:19;;;;;;;0.80;0.80;;;4.50;99.90;;;;;;5226310;28;20045;-76
2021/12/18 08:57:51;;;;;;;0.90;0.90;;;4.60;99.90;;;;;;5244521;28;20297;-74
2021/12/18 09:00:25;;;;;;;1.05;1.05;;;4.60;99.90;;;;;;5248661;28;20030;-77
2021/12/18 09:03:00;;;;;;;1.37;1.37;;;4.60;99.90;;;;;;5263558;28;20028;-77
2021/12/18 09:05:31;;;;;;;0.75;0.75;;;4.70;99.90;;;;;;5240594;28;20268;-76
2021/12/18 09:08:05;;;;;;;0.93;0.93;;;4.60;99.90;;;;;;5263146;28;20351;-76
2021/12/18 09:10:40;;;;;;;0.93;0.93;;;4.70;99.90;;;;;;5263226;28;20028;-75
2021/12/18 09:13:14;;;;;;;0.80;0.80;;;4.80;99.90;;;;;;5264063;28;20031;-75
2021/12/18 09:15:51;;;;;;;1.00;1.00;;;4.80;99.90;;;;;;5265682;28;20457;-75
2021/12/18 09:18:22;;;;;;;0.90;0.90;;;4.70;99.90;;;;;;5265679;28;20031;-76
2021/12/18 09:20:55;;;;;;;1.02;1.02;;;4.80;99.90;;;;;;5265350;28;20099;-77
2021/12/18 09:23:29;;;;;;;0.65;0.65;;;5.00;99.90;;;;;;5264635;28;20035;-77
2021/12/18 09:26:00;;;;;;;1.48;1.38;;;4.90;99.90;;;;;;5281387;28;20384;-76
2021/12/18 09:28:32;;;;;;;1.25;1.25;;;5.00;99.90;;;;;;5266043;28;20040;-76
2021/12/18 09:31:05;;;;;;;0.68;0.68;;;5.10;99.90;;;;;;5242694;28;20044;-76
2021/12/18 09:33:38;;;;;;;1.00;1.00;;;5.20;99.90;;;;;;5242415;28;20089;-76
2021/12/18 09:36:09;;;;;;;1.23;1.23;;;5.20;99.90;;;;;;5225290;28;20064;-76
2021/12/18 09:38:43;;;;;;;0.98;0.98;;;5.10;99.90;;;;;;5245928;28;20701;-76
2021/12/18 09:41:14;;;;;;;0.87;0.87;;;5.10;99.90;;;;;;5245707;28;20048;-77
2021/12/18 09:43:50;;;;;;;0.68;0.68;;;5.10;99.90;;;;;;5263765;28;20047;-75
2021/12/18 09:46:24;;;;;;;1.50;1.40;;;5.20;99.90;;;;;;5257876;28;20024;-74
2021/12/18 09:48:58;;;;;;;1.00;1.00;;;5.20;99.90;;;;;;5263045;28;20039;-75
2021/12/18 09:51:30;;;;;;;0.80;0.80;;;5.30;99.90;;;;;;5263642;28;20048;-77
2021/12/18 09:54:09;;;;;;;0.80;0.80;;;5.30;99.90;;;;;;5263975;28;20039;-75
2021/12/18 09:56:40;;;;;;;1.27;1.27;;;5.50;99.90;;;;;;5262966;28;20072;-76
2021/12/18 09:59:16;;;;;;;0.80;0.80;;;5.30;99.90;;;;;;5246248;28;20101;-75
2021/12/18 10:01:48;;;;;;;1.00;1.00;;;5.30;99.90;;;;;;5263731;28;20322;-76
2021/12/18 10:04:35;;;;;;;0.50;0.50;;;5.40;99.90;;;;;;5220576;28;20379;-76
2021/12/18 10:07:31;;;;;;;0.60;0.60;;;5.50;99.90;;;;;;5261112;28;20028;-76
2021/12/18 10:10:12;;;;;;;0.70;0.70;;;5.70;99.90;;;;;;5252935;28;20034;-77
2021/12/18 10:12:42;;;;;;;0.50;0.50;;;5.80;99.90;;;;;;5259473;28;20028;-76
2021/12/18 10:15:19;;;;;;;0.63;0.63;;;5.80;99.90;;;;;;5242388;28;20457;-76
2021/12/18 10:18:10;;;;;;;0.95;0.70;;;5.80;99.90;;;;;;5247146;28;20039;-76
2021/12/18 10:20:44;;;;;;;0.70;0.70;;;5.80;99.90;;;;;;5261422;28;20020;-75
2021/12/18 10:23:26;;;;;;;1.50;1.08;;;5.80;99.90;;;;;;5227371;28;20038;-77
2021/12/18 10:26:00;;;;;;;1.13;1.13;;;5.80;99.90;;;;;;5266038;28;20089;-76
2021/12/18 10:28:51;;;;;;;;;;;6.20;99.90;;;;;;5239293;28;20226;-75
2021/12/18 10:32:12;;;;;;;0.60;0.60;;;6.20;99.90;;;;;;5256266;28;19979;-75
2021/12/18 10:34:51;;;;;;;0.85;0.85;;;6.50;99.90;;;;;;5177637;28;20512;-75
2021/12/18 10:37:32;;;;;;;0.70;0.70;;;6.90;99.90;;;;;;5175078;28;20041;-76
2021/12/18 10:40:09;;;;;;;0.50;0.50;;;7.00;99.90;;;;;;5174008;28;20042;-77
2021/12/18 10:42:47;;;;;;;0.93;0.93;;;7.20;99.90;;;;;;5158489;28;20400;-76
2021/12/18 10:45:31;;;;;;;0.63;0.63;;;6.70;99.90;;;;;;5145499;28;20184;-75
2021/12/18 10:48:18;;;;;;;0.80;0.80;;;6.70;99.90;;;;;;5178215;28;20029;-75
2021/12/18 10:50:53;;;;;;;0.60;0.60;;;6.20;99.90;;;;;;5180885;28;20609;-75
2021/12/18 10:53:29;;;;;;;1.52;1.42;;;6.30;99.90;;;;;;5182612;28;20040;-75
2021/12/18 10:56:04;;;;;;;0.68;0.68;;;6.00;99.90;;;;;;5189449;28;20084;-77
2021/12/18 10:58:39;;;;;;;0.95;0.95;;;5.80;99.90;;;;;;5160065;28;20033;-75
2021/12/18 11:01:14;;;;;;;0.70;0.70;;;5.80;99.90;;;;;;5175262;28;20072;-75
2021/12/18 11:03:53;;;;;;;0.70;0.70;;;5.90;99.90;;;;;;5162689;28;20513;-75
2021/12/18 11:06:31;;;;;;;0.57;0.57;;;5.80;99.90;;;;;;5150189;28;20050;-76
2021/12/18 11:09:13;;;;;;;1.27;1.27;;;5.70;99.90;;;;;;5233648;28;20060;-75
2021/12/18 11:14:22;;;;;;;0.95;0.95;;;5.60;99.90;;;;;;5261511;28;20081;-76
2021/12/18 11:16:59;;;;;;;0.73;0.73;;;5.50;99.90;;;;;;5260605;28;20321;-74
2021/12/18 11:19:33;;;;;;;0.88;0.88;;;5.50;99.90;;;;;;5271756;28;20132;-75
2021/12/18 11:22:16;;;;;;;0.90;0.90;;;5.60;99.90;;;;;;5255044;28;20397;-77
2021/12/18 11:25:19;;;;;;;1.02;0.98;;;5.50;99.90;;;;;;5264168;28;20088;-72
2021/12/18 11:27:57;;;;;;;0.65;0.65;;;5.40;99.90;;;;;;5173459;28;20165;-74
2021/12/18 11:30:32;;;;;;;0.77;0.77;;;5.40;99.90;;;;;;5164031;28;20161;-72
2021/12/18 11:33:09;;;;;;;0.65;0.65;;;5.50;99.90;;;;;;5160258;28;20112;-72
2021/12/18 11:35:49;;;;;;;0.80;0.80;;;5.60;99.90;;;;;;5161421;28;20239;-72
2021/12/18 11:38:23;;;;;;;1.90;1.15;;;5.50;99.90;;;;;;5138148;28;20089;-71
2021/12/18 11:40:54;;;;;;;0.93;0.93;;;5.50;99.90;;;;;;5146975;28;20113;-72
2021/12/18 11:43:45;;;;;;;0.60;0.60;;;5.60;99.90;;;;;;5150350;28;20252;-71
2021/12/18 11:46:38;;;;;;;0.60;0.60;;;5.70;99.90;;;;;;5173588;28;20046;-72
2021/12/18 11:49:11;;;;;;;0.65;0.65;;;5.80;99.90;;;;;;5158751;28;20030;-72
2021/12/18 11:51:59;;;;;;;1.10;1.10;;;5.80;99.90;;;;;;5178603;28;20104;-72
2021/12/18 11:54:54;;;;;;;1.25;1.15;;;5.80;99.90;;;;;;5154073;28;20034;-72
2021/12/18 11:58:07;;;;;;;0.88;0.88;;;5.80;99.90;;;;;;5158346;28;20244;-72
2021/12/18 12:00:51;;;;;;;0.90;0.90;;;5.70;99.90;;;;;;5102275;29;20106;-73
2021/12/18 12:03:38;;;;;;;0.90;0.90;;;5.80;99.90;;;;;;5118461;28;20176;-72
2021/12/18 12:06:43;;;;;;;0.55;0.55;;;5.80;99.90;;;;;;5184066;28;20060;-73
2021/12/18 12:12:09;;;;;;;1.77;1.70;;;5.80;99.90;;;;;;5157041;28;20045;-72
2021/12/18 12:14:52;;;;;;;1.00;1.00;;;5.70;99.90;;;;;;5160396;28;20112;-73
2021/12/18 12:17:27;;;;;;;0.82;0.82;;;5.70;99.90;;;;;;5177312;28;20037;-73
2021/12/18 12:20:05;;;;;;;0.80;0.80;;;5.50;99.90;;;;;;5139943;28;20603;-74
2021/12/18 12:22:48;;;;;;;0.70;0.70;;;5.50;99.90;;;;;;5135732;28;20570;-73
2021/12/18 12:25:41;;;;;;;0.55;0.55;;;5.60;99.90;;;;;;5146214;28;20050;-74
2021/12/18 12:28:25;;;;;;;1.05;1.05;;;5.60;99.90;;;;;;5172040;28;20154;-72
2021/12/18 12:31:13;;;;;;;3.17;2.97;;;5.70;99.90;;;;;;5162742;28;20084;-72
2021/12/18 12:33:54;;;;;;;1.02;1.02;;;5.70;99.90;;;;;;5184572;28;20040;-73
2021/12/18 12:36:29;;;;;;;0.63;0.63;;;5.70;99.90;;;;;;5204814;28;20021;-71
2021/12/18 12:39:09;;;;;;;0.75;0.75;;;5.60;99.90;;;;;;5180254;28;20048;-72
2021/12/18 12:41:51;;;;;;;1.88;1.77;;;5.60;99.90;;;;;;5181528;28;20095;-71
2021/12/18 12:44:23;;;;;;;0.47;0.47;;;5.70;99.90;;;;;;5216850;28;20045;-73
2021/12/18 12:47:26;;;;;;;0.70;0.70;;;5.60;99.90;;;;;;5256546;28;20028;-72
2021/12/18 12:50:13;;;;;;;0.60;0.60;;;5.60;99.90;;;;;;5248096;28;20062;-73
2021/12/18 12:53:09;;;;;;;0.68;0.68;;;5.70;99.90;;;;;;5244796;28;20095;-73
2021/12/18 12:55:42;;;;;;;;;;;5.50;99.90;;;;;;5247871;28;20044;-74
2021/12/18 12:58:29;;;;;;;0.50;0.50;;;5.50;99.90;;;;;;5281581;28;19938;-73
2021/12/18 13:01:10;;;;;;;0.55;0.55;;;5.50;99.90;;;;;;5264227;28;20225;-73
2021/12/18 13:03:56;;;;;;;0.60;0.60;;;5.50;99.90;;;;;;5264474;28;20032;-73
2021/12/18 13:06:26;;;;;;;0.50;0.50;;;5.40;99.90;;;;;;5258314;28;20053;-73
2021/12/18 13:09:04;;;;;;;1.15;1.08;;;5.40;99.90;;;;;;5265727;28;20400;-72
2021/12/18 13:11:39;;;;;;;0.60;0.60;;;5.40;99.90;;;;;;5265474;28;20028;-72
2021/12/18 13:14:16;;;;;;;0.82;0.82;;;5.40;99.90;;;;;;5231067;28;20028;-72
2021/12/18 13:16:49;;;;;;;0.50;0.50;;;5.40;99.90;;;;;;5264027;28;20024;-74
2021/12/18 13:19:25;;;;;;;0.52;0.52;;;5.40;99.90;;;;;;5264163;28;20374;-73
2021/12/18 13:21:56;;;;;;;0.60;0.60;;;5.40;99.90;;;;;;5263253;28;20027;-72
2021/12/18 13:24:27;;;;;;;0.55;0.55;;;5.30;99.90;;;;;;5263538;28;20386;-72
2021/12/18 13:27:13;;;;;;;0.55;0.55;;;5.30;99.90;;;;;;5263609;28;20051;-72
2021/12/18 13:30:15;;;;;;;0.73;0.73;;;5.30;99.90;;;;;;5261161;28;20051;-73
2021/12/18 13:33:02;;;;;;;0.60;0.60;;;5.30;99.90;;;;;;5260920;28;20032;-73
2021/12/18 13:35:41;;;;;;;0.50;0.50;;;5.30;99.90;;;;;;5266082;28;20049;-73
2021/12/18 13:38:12;;;;;;;0.88;0.88;;;5.30;99.90;;;;;;5265825;28;20031;-73
2021/12/18 13:40:49;;;;;;;0.75;0.75;;;5.30;99.90;;;;;;5263244;28;20127;-72
2021/12/18 13:43:27;;;;;;;0.80;0.80;;;5.30;99.90;;;;;;5262925;28;20039;-73
2021/12/18 13:46:05;;;;;;;0.50;0.50;;;5.40;99.90;;;;;;5261039;28;20031;-72
2021/12/18 13:48:41;;;;;;;0.50;0.50;;;5.30;99.90;;;;;;5263174;28;20024;-72
2021/12/18 13:51:18;;;;;;;0.70;0.70;;;5.30;99.90;;;;;;5279832;28;20446;-72
2021/12/18 13:53:59;;;;;;;0.70;0.70;;;5.40;99.90;;;;;;5262286;28;20048;-73
2021/12/18 13:56:43;;;;;;;0.60;0.60;;;5.40;99.90;;;;;;5262499;28;20032;-72
2021/12/18 13:59:22;;;;;;;1.00;1.00;;;5.30;99.90;;;;;;5260075;28;20529;-73
2021/12/18 14:01:53;;;;;;;0.45;0.45;;;5.30;99.90;;;;;;5263920;28;20071;-72
2021/12/18 14:04:29;;;;;;;0.88;0.88;;;5.30;99.90;;;;;;5253781;28;20074;-73
2021/12/18 14:07:05;;;;;;;0.60;0.60;;;5.20;99.90;;;;;;5241834;28;20099;-73
2021/12/18 14:09:42;;;;;;;1.30;1.30;;;5.20;99.90;;;;;;5257693;28;20020;-73
2021/12/18 14:12:16;;;;;;;0.65;0.65;;;5.20;99.90;;;;;;5263510;28;20310;-72
2021/12/18 14:14:52;;;;;;;0.55;0.55;;;5.30;99.90;;;;;;5246517;28;20298;-73
2021/12/18 14:17:26;;;;;;;0.70;0.70;;;5.30;99.90;;;;;;5264052;28;20032;-74
2021/12/18 14:20:16;;;;;;;1.38;1.38;;;5.20;99.90;;;;;;5264169;28;20036;-72
2021/12/18 14:22:53;;;;;;;0.50;0.50;;;5.20;99.90;;;;;;5260029;28;20036;-74
2021/12/18 14:25:24;;;;;;;0.70;0.70;;;5.20;99.90;;;;;;5252089;28;20048;-72
2021/12/18 14:27:55;;;;;;;1.08;1.08;;;5.20;99.90;;;;;;5267470;28;20103;-73
2021/12/18 14:30:34;;;;;;;0.40;0.40;;;5.20;99.90;;;;;;5264531;28;20036;-72
2021/12/18 14:33:16;;;;;;;1.10;1.10;;;5.20;99.90;;;;;;5270594;28;20081;-73
2021/12/18 14:35:56;;;;;;;1.00;1.00;;;5.20;99.90;;;;;;5254767;28;20029;-74
2021/12/18 14:38:31;;;;;;;0.50;0.50;;;5.20;99.90;;;;;;5241871;28;20032;-73